createdAt,value
2022-09-04T00:02:33.906Z,100.00
2022-09-04T00:05:07.735Z,100.00
2022-09-04T00:07:40.928Z,100.00
2022-09-04T00:10:16.310Z,100.00
2022-09-04T00:12:50.173Z,100.00
2022-09-04T00:15:22.350Z,100.00
2022-09-04T00:17:57.690Z,100.00
2022-09-04T00:20:35.495Z,100.00
2022-09-04T00:23:11.050Z,100.00
2022-09-04T00:25:45.654Z,100.00
2022-09-04T00:28:21.136Z,100.00
2022-09-04T00:30:59.243Z,100.00
2022-09-04T00:33:33.718Z,100.00
2022-09-04T00:36:04.843Z,100.00
2022-09-04T00:38:42.098Z,100.00
2022-09-04T00:41:22.634Z,100.00
2022-09-04T00:44:18.234Z,100.00
2022-09-04T00:47:23.834Z,100.00
2022-09-04T00:50:24.805Z,100.00
2022-09-04T00:53:06.306Z,100.00
2022-09-04T00:55:52.643Z,100.00
2022-09-04T00:58:35.643Z,100.00
2022-09-04T01:01:04.436Z,100.00
2022-09-04T01:03:59.327Z,100.00
2022-09-04T01:06:35.527Z,100.00
2022-09-04T01:09:24.840Z,100.00
2022-09-04T01:12:02.655Z,100.00
2022-09-04T01:14:41.444Z,100.00
2022-09-04T01:17:18.206Z,100.00
2022-09-04T01:20:00.276Z,100.00
2022-09-04T01:22:51.168Z,100.00
2022-09-04T01:25:34.011Z,100.00
2022-09-04T01:28:09.084Z,100.00
2022-09-04T01:30:47.096Z,100.00
2022-09-04T01:33:20.679Z,100.00
2022-09-04T01:35:57.228Z,100.00
2022-09-04T01:38:34.295Z,100.00
2022-09-04T01:41:08.626Z,100.00
2022-09-04T01:43:37.837Z,100.00
2022-09-04T01:46:20.090Z,100.00
2022-09-04T01:48:54.636Z,100.00
2022-09-04T01:51:34.097Z,100.00
2022-09-04T01:54:13.708Z,100.00
2022-09-04T01:56:46.273Z,100.00
2022-09-04T01:59:26.832Z,100.00
2022-09-04T02:01:59.506Z,100.00
2022-09-04T02:04:35.702Z,100.00
2022-09-04T02:07:15.808Z,100.00
2022-09-04T02:09:55.381Z,100.00
2022-09-04T02:12:34.457Z,100.00
2022-09-04T02:15:10.469Z,100.00
2022-09-04T02:17:45.867Z,100.00
2022-09-04T02:20:24.618Z,100.00
2022-09-04T02:23:05.168Z,100.00
2022-09-04T02:25:39.448Z,100.00
2022-09-04T02:28:21.562Z,100.00
2022-09-04T02:30:58.553Z,100.00
2022-09-04T02:33:37.144Z,100.00
2022-09-04T02:36:11.166Z,100.00
2022-09-04T02:38:48.578Z,100.00
2022-09-04T02:41:24.120Z,100.00
2022-09-04T02:44:16.982Z,100.00
2022-09-04T02:46:57.854Z,100.00
2022-09-04T02:49:34.817Z,100.00
2022-09-04T02:52:16.198Z,100.00
2022-09-04T02:54:57.738Z,100.00
2022-09-04T02:57:33.887Z,100.00
2022-09-04T03:00:07.689Z,100.00
2022-09-04T03:02:42.682Z,100.00
2022-09-04T03:05:20.315Z,100.00
2022-09-04T03:07:57.669Z,100.00
2022-09-04T03:10:32.272Z,100.00
2022-09-04T03:13:07.020Z,100.00
2022-09-04T03:15:43.143Z,100.00
2022-09-04T03:18:20.749Z,100.00
2022-09-04T03:20:55.908Z,100.00
2022-09-04T03:23:33.477Z,100.00
2022-09-04T03:26:13.854Z,100.00
2022-09-04T03:28:50.443Z,100.00
2022-09-04T03:31:28.030Z,100.00
2022-09-04T03:34:08.089Z,100.00
2022-09-04T03:36:47.081Z,100.00
2022-09-04T03:39:22.453Z,100.00
2022-09-04T03:42:05.127Z,100.00
2022-09-04T03:44:44.891Z,100.00
2022-09-04T03:47:20.754Z,100.00
2022-09-04T03:49:59.242Z,100.00
2022-09-04T03:52:35.718Z,100.00
2022-09-04T03:55:25.080Z,100.00
2022-09-04T03:58:08.675Z,100.00
2022-09-04T04:00:47.459Z,100.00
2022-09-04T04:03:37.955Z,100.00
2022-09-04T04:06:24.363Z,100.00
2022-09-04T04:09:05.223Z,100.00
2022-09-04T04:11:47.226Z,100.00
2022-09-04T04:14:38.340Z,100.00
2022-09-04T04:17:23.626Z,100.00
2022-09-04T04:20:05.834Z,100.00
2022-09-04T04:22:56.060Z,100.00
2022-09-04T04:25:42.202Z,100.00
2022-09-04T04:28:24.944Z,100.00
2022-09-04T04:30:54.608Z,100.00
2022-09-04T04:33:34.733Z,100.00
2022-09-04T04:36:13.174Z,100.00
2022-09-04T04:39:13.552Z,100.00
2022-09-04T04:42:06.125Z,100.00
2022-09-04T04:45:09.450Z,100.00
2022-09-04T04:48:12.484Z,100.00
2022-09-04T04:50:49.587Z,100.00
2022-09-04T04:53:27.020Z,100.00
2022-09-04T04:56:00.871Z,100.00
2022-09-04T04:58:51.166Z,100.00
2022-09-04T05:01:32.483Z,100.00
2022-09-04T05:04:11.616Z,100.00
2022-09-04T05:06:48.857Z,100.00
2022-09-04T05:09:25.803Z,100.00
2022-09-04T05:12:07.455Z,100.00
2022-09-04T05:14:43.532Z,100.00
2022-09-04T05:17:23.597Z,100.00
2022-09-04T05:20:00.039Z,100.00
2022-09-04T05:22:36.457Z,100.00
2022-09-04T05:25:13.523Z,100.00
2022-09-04T05:27:58.636Z,100.00
2022-09-04T05:30:41.213Z,100.00
2022-09-04T05:33:18.958Z,100.00
2022-09-04T05:35:53.034Z,100.00
2022-09-04T05:38:27.333Z,100.00
2022-09-04T05:41:06.410Z,100.00
2022-09-04T05:43:57.553Z,100.00
2022-09-04T05:46:42.761Z,100.00
2022-09-04T05:49:22.380Z,100.00
2022-09-04T05:52:11.937Z,100.00
2022-09-04T05:55:00.384Z,100.00
2022-09-04T05:57:46.161Z,100.00
2022-09-04T06:00:17.136Z,100.00
2022-09-04T06:03:11.832Z,100.00
2022-09-04T06:05:47.541Z,100.00
2022-09-04T06:08:32.590Z,100.00
2022-09-04T06:11:24.702Z,100.00
2022-09-04T06:14:13.987Z,100.00
2022-09-04T06:16:56.663Z,100.00
2022-09-04T06:19:43.631Z,100.00
2022-09-04T06:22:35.535Z,100.00
2022-09-04T06:25:17.694Z,100.00
2022-09-04T06:28:04.801Z,100.00
2022-09-04T06:30:39.496Z,100.00
2022-09-04T06:33:53.574Z,100.00
2022-09-04T06:36:35.622Z,100.00
2022-09-04T06:39:17.268Z,100.00
2022-09-04T06:41:58.200Z,100.00
2022-09-04T06:44:41.159Z,100.00
2022-09-04T06:47:23.200Z,100.00
2022-09-04T06:50:16.524Z,100.00
2022-09-04T06:52:55.869Z,100.00
2022-09-04T06:55:33.437Z,100.00
2022-09-04T06:58:16.977Z,100.00
2022-09-04T07:00:54.164Z,100.00
2022-09-04T07:03:43.474Z,100.00
2022-09-04T07:06:19.461Z,100.00
2022-09-04T07:09:04.466Z,100.00
2022-09-04T07:11:51.023Z,100.00
2022-09-04T07:14:46.251Z,100.00
2022-09-04T07:17:21.807Z,100.00
2022-09-04T07:20:05.962Z,100.00
2022-09-04T07:22:54.918Z,100.00
2022-09-04T07:25:28.285Z,100.00
2022-09-04T07:28:13.115Z,100.00
2022-09-04T07:30:45.390Z,100.00
2022-09-04T07:33:20.476Z,100.00
2022-09-04T07:35:59.176Z,100.00
2022-09-04T07:38:36.996Z,100.00
2022-09-04T07:41:11.392Z,100.00
2022-09-04T07:43:54.657Z,100.00
2022-09-04T07:46:30.295Z,100.00
2022-09-04T07:49:10.153Z,100.00
2022-09-04T07:51:44.193Z,100.00
2022-09-04T07:54:27.534Z,100.00
2022-09-04T07:57:11.402Z,100.00
2022-09-04T07:59:54.967Z,100.00
2022-09-04T08:02:39.179Z,100.00
2022-09-04T08:05:23.075Z,100.00
2022-09-04T08:08:27.084Z,100.00
2022-09-04T08:11:09.855Z,100.00
2022-09-04T08:14:03.789Z,100.00
2022-09-04T08:16:36.292Z,100.00
2022-09-04T08:19:24.230Z,100.00
2022-09-04T08:21:54.891Z,100.00
2022-09-04T08:24:54.878Z,100.00
2022-09-04T08:27:47.683Z,100.00
2022-09-04T08:30:20.092Z,100.00
2022-09-04T08:33:28.289Z,100.00
2022-09-04T08:36:03.159Z,100.00
2022-09-04T08:38:56.624Z,100.00
2022-09-04T08:42:08.752Z,100.00
2022-09-04T08:45:15.806Z,100.00
2022-09-04T08:48:19.241Z,100.00
2022-09-04T08:51:20.198Z,100.00
2022-09-04T08:54:25.465Z,100.00
2022-09-04T08:57:14.452Z,100.00
2022-09-04T09:00:07.074Z,100.00
2022-09-04T09:03:17.293Z,100.00
2022-09-04T09:06:24.372Z,100.00
2022-09-04T09:09:28.871Z,100.00
2022-09-04T09:12:41.209Z,100.00
2022-09-04T09:15:52.825Z,100.00
2022-09-04T09:18:37.145Z,100.00
2022-09-04T09:21:11.228Z,100.00
2022-09-04T09:23:45.987Z,100.00
2022-09-04T09:26:26.542Z,100.00
2022-09-04T09:29:29.950Z,100.00
2022-09-04T09:32:31.118Z,100.00
2022-09-04T09:35:55.640Z,100.00
2022-09-04T09:38:51.650Z,100.00
2022-09-04T09:41:59.561Z,100.00
2022-09-04T09:44:52.982Z,100.00
2022-09-04T09:48:02.426Z,100.00
2022-09-04T09:50:49.920Z,100.00
2022-09-04T09:53:54.744Z,100.00
2022-09-04T09:56:56.092Z,100.00
2022-09-04T09:59:53.668Z,100.00
2022-09-04T10:02:54.376Z,100.00
2022-09-04T10:06:00.570Z,100.00
2022-09-04T10:09:17.296Z,100.00
2022-09-04T10:12:26.193Z,100.00
2022-09-04T10:15:22.183Z,100.00
2022-09-04T10:18:23.167Z,100.00
2022-09-04T10:21:20.818Z,100.00
2022-09-04T10:24:12.777Z,100.00
2022-09-04T10:27:12.509Z,100.00
2022-09-04T10:30:06.623Z,100.00
2022-09-04T10:33:13.056Z,95.45
2022-09-04T10:36:01.236Z,94.41
2022-09-04T10:39:02.426Z,97.60
2022-09-04T10:42:05.712Z,91.81
2022-09-04T10:45:01.849Z,84.44
2022-09-04T10:47:46.369Z,89.74
2022-09-04T10:50:28.552Z,90.49
2022-09-04T10:53:21.549Z,90.49
2022-09-04T10:56:03.256Z,90.90
2022-09-04T10:58:45.054Z,90.48
2022-09-04T11:01:47.744Z,92.38
2022-09-04T11:05:07.047Z,91.39
2022-09-04T11:08:09.310Z,86.17
2022-09-04T11:10:55.683Z,85.78
2022-09-04T11:14:08.818Z,89.13
2022-09-04T11:17:00.255Z,82.41
2022-09-04T11:20:06.986Z,82.26
2022-09-04T11:23:13.526Z,80.26
2022-09-04T11:26:17.854Z,79.35
2022-09-04T11:29:27.169Z,79.40
2022-09-04T11:32:28.053Z,74.46
2022-09-04T11:35:32.219Z,74.13
2022-09-04T11:38:05.128Z,78.53
2022-09-04T11:41:18.661Z,73.06
2022-09-04T11:44:02.118Z,70.79
2022-09-04T11:47:07.500Z,70.93
2022-09-04T11:50:00.477Z,71.11
2022-09-04T11:52:48.884Z,70.36
2022-09-04T11:55:38.697Z,71.86
2022-09-04T11:58:23.532Z,65.54
2022-09-04T12:01:04.025Z,65.50
2022-09-04T12:04:04.419Z,66.14
2022-09-04T12:06:51.782Z,64.88
2022-09-04T12:09:59.213Z,66.47
2022-09-04T12:12:57.996Z,65.29
2022-09-04T12:15:55.275Z,67.13
2022-09-04T12:18:44.687Z,62.77
2022-09-04T12:21:41.050Z,63.83
2022-09-04T12:24:38.304Z,63.80
2022-09-04T12:27:43.041Z,66.29
2022-09-04T12:30:15.834Z,65.45
2022-09-04T12:33:08.516Z,63.12
2022-09-04T12:36:03.399Z,64.22
2022-09-04T12:39:04.047Z,62.48
2022-09-04T12:41:40.732Z,64.22
2022-09-04T12:44:19.955Z,63.98
2022-09-04T12:47:07.133Z,65.52
2022-09-04T12:49:58.224Z,62.80
2022-09-04T12:52:43.212Z,64.49
2022-09-04T12:55:19.317Z,66.46
2022-09-04T12:58:00.982Z,65.38
2022-09-04T13:00:48.512Z,65.68
2022-09-04T13:03:27.401Z,63.89
2022-09-04T13:06:08.480Z,63.14
2022-09-04T13:08:50.520Z,62.50
2022-09-04T13:11:40.148Z,63.66
2022-09-04T13:14:34.831Z,60.86
2022-09-04T13:17:10.316Z,59.03
2022-09-04T13:19:47.689Z,60.63
2022-09-04T13:22:28.695Z,62.41
2022-09-04T13:25:08.607Z,62.62
2022-09-04T13:27:50.387Z,62.71
2022-09-04T13:30:25.541Z,60.71
2022-09-04T13:33:22.615Z,62.51
2022-09-04T13:36:05.128Z,63.74
2022-09-04T13:39:10.648Z,64.44
2022-09-04T13:41:53.841Z,65.07
2022-09-04T13:44:57.746Z,65.72
2022-09-04T13:47:32.832Z,67.46
2022-09-04T13:50:10.137Z,68.40
2022-09-04T13:52:45.711Z,68.84
2022-09-04T13:55:20.765Z,68.87
2022-09-04T13:57:57.384Z,69.59
2022-09-04T14:00:26.887Z,70.13
2022-09-04T14:03:03.298Z,70.77
2022-09-04T14:05:34.759Z,70.54
2022-09-04T14:08:06.677Z,69.06
2022-09-04T14:10:56.714Z,70.48
2022-09-04T14:13:41.724Z,72.26
2022-09-04T14:16:14.035Z,70.50
2022-09-04T14:18:55.701Z,70.27
2022-09-04T14:21:35.269Z,70.69
2022-09-04T14:24:09.429Z,71.25
2022-09-04T14:26:50.316Z,70.36
2022-09-04T14:29:31.236Z,70.18
2022-09-04T14:32:10.475Z,70.61
2022-09-04T14:34:58.963Z,71.11
2022-09-04T14:38:06.766Z,73.23
2022-09-04T14:40:39.607Z,73.24
2022-09-04T14:43:22.295Z,74.58
2022-09-04T14:46:06.844Z,74.30
2022-09-04T14:48:40.511Z,72.29
2022-09-04T14:51:35.168Z,73.59
2022-09-04T14:54:08.479Z,74.18
2022-09-04T14:56:43.767Z,72.74
2022-09-04T14:59:21.871Z,71.89
2022-09-04T15:02:24.228Z,71.60
2022-09-04T15:05:00.210Z,72.68
2022-09-04T15:07:50.623Z,75.05
2022-09-04T15:10:24.523Z,76.65
2022-09-04T15:13:00.651Z,79.56
2022-09-04T15:15:33.909Z,80.21
2022-09-04T15:18:10.822Z,80.02
2022-09-04T15:20:46.659Z,81.33
2022-09-04T15:23:25.791Z,81.54
2022-09-04T15:26:03.616Z,80.67
2022-09-04T15:28:39.398Z,80.48
2022-09-04T15:31:16.187Z,81.34
2022-09-04T15:33:54.439Z,81.68
2022-09-04T15:36:25.356Z,85.34
2022-09-04T15:38:57.761Z,86.58
2022-09-04T15:41:37.349Z,85.93
2022-09-04T15:44:16.020Z,84.67
2022-09-04T15:46:49.498Z,86.17
2022-09-04T15:49:26.557Z,83.59
2022-09-04T15:52:04.206Z,83.65
2022-09-04T15:54:57.978Z,83.44
2022-09-04T15:57:36.071Z,83.84
2022-09-04T16:00:10.486Z,85.84
2022-09-04T16:02:50.379Z,87.66
2022-09-04T16:05:24.539Z,89.04
2022-09-04T16:08:03.701Z,91.15
2022-09-04T16:10:48.515Z,93.19
2022-09-04T16:13:58.303Z,95.39
2022-09-04T16:16:33.558Z,96.05
2022-09-04T16:19:08.893Z,95.72
2022-09-04T16:21:48.043Z,97.92
2022-09-04T16:24:19.176Z,100.00
2022-09-04T16:26:51.439Z,100.00
2022-09-04T16:29:32.686Z,100.00
2022-09-04T16:32:00.644Z,100.00
2022-09-04T16:34:34.079Z,100.00
2022-09-04T16:37:10.966Z,100.00
2022-09-04T16:39:50.094Z,100.00
2022-09-04T16:42:25.687Z,100.00
2022-09-04T16:44:59.289Z,100.00
2022-09-04T16:47:36.421Z,100.00
2022-09-04T16:50:13.527Z,100.00
2022-09-04T16:52:49.918Z,100.00
2022-09-04T16:55:37.009Z,100.00
2022-09-04T16:58:35.038Z,100.00
2022-09-04T17:01:14.696Z,100.00
2022-09-04T17:03:54.897Z,100.00
2022-09-04T17:06:56.345Z,100.00
2022-09-04T17:09:29.799Z,100.00
2022-09-04T17:12:06.280Z,100.00
2022-09-04T17:14:40.415Z,100.00
2022-09-04T17:17:30.881Z,100.00
2022-09-04T17:20:09.637Z,100.00
2022-09-04T17:29:02.430Z,100.00
2022-09-04T17:29:12.103Z,100.00
2022-09-04T17:29:16.404Z,100.00
2022-09-04T17:31:38.470Z,100.00
2022-09-04T17:40:44.531Z,100.00
2022-09-04T17:40:53.466Z,100.00
2022-09-04T17:40:54.444Z,100.00
2022-09-04T17:43:22.868Z,100.00
2022-09-04T17:46:02.380Z,100.00
2022-09-04T17:48:34.096Z,100.00
2022-09-04T17:51:07.262Z,100.00
2022-09-04T17:53:39.578Z,100.00
2022-09-04T17:56:14.671Z,100.00
2022-09-04T17:58:47.728Z,100.00
2022-09-04T18:01:23.309Z,100.00
2022-09-04T18:04:20.356Z,100.00
2022-09-04T18:06:57.896Z,100.00
2022-09-04T18:09:34.145Z,100.00
2022-09-04T18:12:11.608Z,100.00
2022-09-04T18:14:50.134Z,100.00
2022-09-04T18:17:44.841Z,100.00
2022-09-04T18:20:18.618Z,100.00
2022-09-04T18:23:15.455Z,100.00
2022-09-04T18:25:47.150Z,100.00
2022-09-04T18:28:21.004Z,100.00
2022-09-04T18:37:07.652Z,100.00
2022-09-04T18:37:20.594Z,100.00
2022-09-04T18:37:26.041Z,100.00
2022-09-04T18:39:50.340Z,100.00
2022-09-04T18:48:14.176Z,100.00
2022-09-04T18:50:33.208Z,100.00
2022-09-04T18:50:45.044Z,100.00
2022-09-04T18:51:21.821Z,100.00
2022-09-04T18:53:55.975Z,100.00
2022-09-04T18:56:29.355Z,100.00
2022-09-04T18:59:12.565Z,100.00
2022-09-04T19:01:44.762Z,100.00
2022-09-04T19:04:35.995Z,100.00
2022-09-04T19:07:09.121Z,100.00
2022-09-04T19:09:56.217Z,100.00
2022-09-04T19:12:35.669Z,100.00
2022-09-04T19:15:36.660Z,100.00
2022-09-04T19:18:14.959Z,100.00
2022-09-04T19:20:48.239Z,100.00
2022-09-04T19:23:26.365Z,100.00
2022-09-04T19:26:01.754Z,100.00
2022-09-04T19:28:52.380Z,100.00
2022-09-04T19:31:29.962Z,100.00
2022-09-04T19:34:01.019Z,100.00
2022-09-04T19:36:36.639Z,100.00
2022-09-04T19:46:00.253Z,100.00
2022-09-04T19:46:03.140Z,100.00
2022-09-04T19:46:19.914Z,100.00
2022-09-04T19:48:06.063Z,100.00
2022-09-04T19:53:31.421Z,100.00
2022-09-04T19:53:42.736Z,100.00
2022-09-04T19:56:26.566Z,100.00
2022-09-04T19:59:01.759Z,100.00
2022-09-04T20:01:39.963Z,100.00
2022-09-04T20:04:12.418Z,100.00
2022-09-04T20:06:48.355Z,100.00
2022-09-04T20:09:22.709Z,100.00
2022-09-04T20:11:57.081Z,100.00
2022-09-04T20:14:32.816Z,100.00
2022-09-04T20:17:16.453Z,100.00
2022-09-04T20:19:49.635Z,100.00
2022-09-04T20:22:31.278Z,100.00
2022-09-04T20:25:13.622Z,100.00
2022-09-04T20:27:45.995Z,100.00
2022-09-04T20:30:22.487Z,100.00
2022-09-04T20:32:56.539Z,100.00
2022-09-04T20:35:33.822Z,100.00
2022-09-04T20:38:12.486Z,100.00
2022-09-04T20:40:43.301Z,100.00
2022-09-04T20:43:26.859Z,100.00
2022-09-04T20:50:32.602Z,100.00
2022-09-04T20:52:52.039Z,100.00
2022-09-04T20:52:54.191Z,100.00
2022-09-04T20:55:11.222Z,100.00
2022-09-04T21:03:05.536Z,100.00
2022-09-04T21:03:18.178Z,100.00
2022-09-04T21:03:57.651Z,100.00
2022-09-04T21:06:34.756Z,100.00
2022-09-04T21:09:53.377Z,100.00
2022-09-04T21:12:35.034Z,100.00
2022-09-04T21:15:11.556Z,100.00
2022-09-04T21:18:04.617Z,100.00
2022-09-04T21:20:59.203Z,100.00
2022-09-04T21:24:12.586Z,100.00
2022-09-04T21:27:04.759Z,100.00
2022-09-04T21:29:47.192Z,100.00
2022-09-04T21:32:30.170Z,100.00
2022-09-04T21:35:06.338Z,100.00
2022-09-04T21:37:46.221Z,100.00
2022-09-04T21:40:50.354Z,100.00
2022-09-04T21:43:53.377Z,100.00
2022-09-04T21:46:47.613Z,100.00
2022-09-04T21:49:45.503Z,100.00
2022-09-04T21:52:27.964Z,100.00
2022-09-04T21:57:33.263Z,100.00
2022-09-04T22:02:32.091Z,100.00
2022-09-04T22:02:39.061Z,100.00
2022-09-04T22:04:18.532Z,100.00
2022-09-04T22:08:31.898Z,100.00
2022-09-04T22:13:38.963Z,100.00
2022-09-04T22:13:40.449Z,100.00
2022-09-04T22:16:02.000Z,100.00
2022-09-04T22:18:56.698Z,100.00
2022-09-04T22:21:28.376Z,100.00
2022-09-04T22:24:32.243Z,100.00
2022-09-04T22:27:32.059Z,100.00
2022-09-04T22:30:08.865Z,100.00
2022-09-04T22:33:11.003Z,100.00
2022-09-04T22:36:21.263Z,100.00
2022-09-04T22:39:14.663Z,100.00
2022-09-04T22:42:09.518Z,100.00
2022-09-04T22:45:10.046Z,100.00
2022-09-04T22:47:54.931Z,100.00
2022-09-04T22:50:49.295Z,100.00
2022-09-04T22:54:04.198Z,100.00
2022-09-04T22:56:54.039Z,100.00
2022-09-04T22:59:48.997Z,100.00
2022-09-04T23:02:54.109Z,100.00
2022-09-04T23:05:37.809Z,100.00
2022-09-04T23:13:46.902Z,100.00
2022-09-04T23:13:51.048Z,100.00
2022-09-04T23:14:55.061Z,100.00
2022-09-04T23:18:41.610Z,100.00
2022-09-04T23:26:33.253Z,100.00
2022-09-04T23:26:46.605Z,100.00
2022-09-04T23:27:04.694Z,100.00
2022-09-04T23:29:53.172Z,100.00
2022-09-04T23:33:00.002Z,100.00
2022-09-04T23:35:38.868Z,100.00
2022-09-04T23:38:26.000Z,100.00
2022-09-04T23:40:56.224Z,100.00
2022-09-04T23:43:42.260Z,100.00
2022-09-04T23:46:36.195Z,100.00
2022-09-04T23:49:29.863Z,100.00
2022-09-04T23:52:04.886Z,100.00
2022-09-04T23:55:23.395Z,100.00
2022-09-04T23:58:00.081Z,100.00
